createdAt,value
2023-02-22T00:01:07.451Z,99244.44
2023-02-22T00:03:35.111Z,99241.28
2023-02-22T00:06:05.078Z,99251.16
2023-02-22T00:08:35.547Z,99251.44
2023-02-22T00:11:08.535Z,99251.78
2023-02-22T00:13:37.452Z,99252.91
2023-02-22T00:16:05.547Z,99254.94
2023-02-22T00:18:32.693Z,99253.50
2023-02-22T00:21:01.223Z,99248.13
2023-02-22T00:23:30.985Z,99254.37
2023-02-22T00:25:59.982Z,99257.84
2023-02-22T00:28:27.593Z,99253.84
2023-02-22T00:30:55.500Z,99261.00
2023-02-22T00:33:23.277Z,99267.16
2023-02-22T00:35:50.475Z,99257.44
2023-02-22T00:38:19.174Z,99259.22
2023-02-22T00:40:46.600Z,99261.16
2023-02-22T00:43:14.298Z,99262.03
2023-02-22T00:45:42.279Z,99263.72
2023-02-22T00:48:10.070Z,99260.25
2023-02-22T00:50:37.659Z,99261.84
2023-02-22T00:53:07.756Z,99253.84
2023-02-22T00:55:37.803Z,99254.59
2023-02-22T00:58:06.030Z,99252.66
2023-02-22T01:00:39.380Z,99253.50
2023-02-22T01:03:10.656Z,99247.25
2023-02-22T01:05:40.754Z,99253.25
2023-02-22T01:08:09.844Z,99253.06
2023-02-22T01:10:38.348Z,99249.38
2023-02-22T01:13:09.132Z,99247.44
2023-02-22T01:15:39.483Z,99245.72
2023-02-22T01:18:07.867Z,99241.97
2023-02-22T01:20:35.307Z,99241.41
2023-02-22T01:23:06.546Z,99244.06
2023-02-22T01:25:35.294Z,99245.06
2023-02-22T01:28:05.773Z,99242.47
2023-02-22T01:30:35.315Z,99245.94
2023-02-22T01:33:05.323Z,99246.03
2023-02-22T01:35:36.061Z,99239.34
2023-02-22T01:38:03.453Z,99244.00
2023-02-22T01:40:36.453Z,99239.84
2023-02-22T01:43:17.234Z,99244.16
2023-02-22T01:45:55.456Z,99247.59
2023-02-22T01:48:25.709Z,99242.53
2023-02-22T01:51:03.708Z,99238.06
2023-02-22T01:53:39.926Z,99234.69
2023-02-22T01:56:07.859Z,99241.06
2023-02-22T01:58:38.644Z,99240.44
2023-02-22T02:01:07.807Z,99243.16
2023-02-22T02:03:38.576Z,99234.47
2023-02-22T02:06:12.343Z,99241.75
2023-02-22T02:08:42.503Z,99233.19
2023-02-22T02:11:10.261Z,99241.25
2023-02-22T02:13:37.530Z,99233.50
2023-02-22T02:16:05.256Z,99233.72
2023-02-22T02:18:32.707Z,99229.38
2023-02-22T02:21:55.633Z,99234.78
2023-02-22T02:24:41.137Z,99236.66
2023-02-22T02:27:11.906Z,99231.69
2023-02-22T02:30:25.376Z,99236.84
2023-02-22T02:32:56.384Z,99241.25
2023-02-22T02:36:13.259Z,99236.03
2023-02-22T02:38:44.040Z,99234.16
2023-02-22T02:41:26.549Z,99243.28
2023-02-22T02:44:02.869Z,99236.25
2023-02-22T02:46:34.440Z,99236.09
2023-02-22T02:49:06.933Z,99229.69
2023-02-22T02:51:38.915Z,99233.94
2023-02-22T02:54:07.466Z,99237.91
2023-02-22T02:56:35.444Z,99221.28
2023-02-22T02:59:02.474Z,99232.41
2023-02-22T03:02:24.728Z,99228.72
2023-02-22T03:05:10.203Z,99228.50
2023-02-22T03:08:07.787Z,99223.78
2023-02-22T03:11:17.466Z,99226.13
2023-02-22T03:14:02.779Z,99231.16
2023-02-22T03:16:50.325Z,99234.31
2023-02-22T03:19:38.306Z,99237.56
2023-02-22T03:22:16.440Z,99230.31
2023-02-22T03:25:22.575Z,99228.22
2023-02-22T03:28:02.373Z,99231.34
2023-02-22T03:30:39.581Z,99233.81
2023-02-22T03:33:15.027Z,99231.97
2023-02-22T03:35:56.881Z,99232.59
2023-02-22T03:38:29.023Z,99233.41
2023-02-22T03:41:01.082Z,99239.37
2023-02-22T03:43:50.601Z,99229.63
2023-02-22T03:46:19.540Z,99241.16
2023-02-22T03:49:03.452Z,99243.09
2023-02-22T03:51:31.460Z,99246.00
2023-02-22T03:53:59.440Z,99237.22
2023-02-22T03:56:35.810Z,99244.34
2023-02-22T03:59:09.466Z,99243.34
2023-02-22T04:01:36.836Z,99244.13
2023-02-22T04:04:05.445Z,99241.38
2023-02-22T04:06:32.967Z,99242.84
2023-02-22T04:09:02.218Z,99239.97
2023-02-22T04:11:29.660Z,99243.22
2023-02-22T04:13:57.228Z,99240.53
2023-02-22T04:16:24.356Z,99244.84
2023-02-22T04:18:51.835Z,99246.56
2023-02-22T04:21:19.155Z,99247.53
2023-02-22T04:23:46.512Z,99246.84
2023-02-22T04:26:14.029Z,99247.13
2023-02-22T04:28:41.074Z,99244.63
2023-02-22T04:31:08.499Z,99247.44
2023-02-22T04:33:36.054Z,99248.31
2023-02-22T04:36:03.628Z,99244.84
2023-02-22T04:38:31.851Z,99251.72
2023-02-22T04:40:59.617Z,99246.19
2023-02-22T04:43:27.196Z,99256.81
2023-02-22T04:45:56.172Z,99248.81
2023-02-22T04:48:23.515Z,99254.56
2023-02-22T04:50:52.135Z,99253.59
2023-02-22T04:53:19.518Z,99255.59
2023-02-22T04:55:46.967Z,99253.66
2023-02-22T04:58:14.135Z,99251.06
2023-02-22T05:00:41.147Z,99249.38
2023-02-22T05:03:09.501Z,99256.28
2023-02-22T05:05:36.494Z,99253.44
2023-02-22T05:08:03.635Z,99261.78
2023-02-22T05:10:30.987Z,99260.13
2023-02-22T05:12:58.052Z,99259.16
2023-02-22T05:15:25.630Z,99254.63
2023-02-22T05:17:53.309Z,99255.34
2023-02-22T05:20:25.200Z,99259.53
2023-02-22T05:22:52.653Z,99259.34
2023-02-22T05:25:20.478Z,99256.41
2023-02-22T05:27:57.330Z,99256.66
2023-02-22T05:30:28.415Z,99263.03
2023-02-22T05:32:55.676Z,99261.19
2023-02-22T05:35:23.563Z,99270.31
2023-02-22T05:37:51.729Z,99270.28
2023-02-22T05:40:24.377Z,99275.41
2023-02-22T05:42:53.034Z,99280.31
2023-02-22T05:45:22.529Z,99279.81
2023-02-22T05:47:50.308Z,99289.94
2023-02-22T05:50:19.649Z,99283.87
2023-02-22T05:52:48.752Z,99283.16
2023-02-22T05:55:18.105Z,99291.72
2023-02-22T05:57:45.681Z,99283.28
2023-02-22T06:00:23.273Z,99289.41
2023-02-22T06:03:09.912Z,99277.50
2023-02-22T06:05:39.391Z,99284.44
2023-02-22T06:08:07.727Z,99290.56
2023-02-22T06:10:34.774Z,99291.87
2023-02-22T06:13:03.316Z,99290.50
2023-02-22T06:15:30.988Z,99290.63
2023-02-22T06:17:58.918Z,99292.31
2023-02-22T06:20:28.797Z,99293.34
2023-02-22T06:22:58.532Z,99305.31
2023-02-22T06:25:28.628Z,99302.69
2023-02-22T06:27:55.991Z,99313.56
2023-02-22T06:30:25.205Z,99309.19
2023-02-22T06:32:52.706Z,99309.75
2023-02-22T06:35:20.647Z,99313.94
2023-02-22T06:37:48.205Z,99319.09
2023-02-22T06:40:15.774Z,99312.69
2023-02-22T06:42:43.126Z,99321.63
2023-02-22T06:45:10.854Z,99320.63
2023-02-22T06:47:41.589Z,99324.59
2023-02-22T06:50:31.210Z,99325.47
2023-02-22T06:52:58.845Z,99333.00
2023-02-22T06:55:32.859Z,99336.47
2023-02-22T06:58:01.073Z,99334.34
2023-02-22T07:00:31.053Z,99324.50
2023-02-22T07:02:59.608Z,99327.94
2023-02-22T07:05:27.966Z,99330.63
2023-02-22T07:08:02.829Z,99337.13
2023-02-22T07:10:32.082Z,99330.72
2023-02-22T07:12:59.900Z,99330.31
2023-02-22T07:15:29.698Z,99323.44
2023-02-22T07:17:57.077Z,99325.47
2023-02-22T07:20:26.468Z,99318.88
2023-02-22T07:22:53.754Z,99324.56
2023-02-22T07:25:21.292Z,99319.03
2023-02-22T07:27:48.812Z,99331.69
2023-02-22T07:30:26.076Z,99339.44
2023-02-22T07:32:55.219Z,99335.00
2023-02-22T07:35:28.498Z,99337.72
2023-02-22T07:37:56.251Z,99330.44
2023-02-22T07:40:25.041Z,99341.38
2023-02-22T07:43:00.727Z,99344.47
2023-02-22T07:45:33.766Z,99339.13
2023-02-22T07:48:03.765Z,99342.06
2023-02-22T07:50:32.721Z,99339.03
2023-02-22T07:53:03.542Z,99338.28
2023-02-22T07:55:32.230Z,99336.19
2023-02-22T07:58:01.858Z,99335.63
2023-02-22T08:00:34.691Z,99336.25
2023-02-22T08:03:04.607Z,99338.16
2023-02-22T08:05:32.942Z,99337.75
2023-02-22T08:08:00.357Z,99335.59
2023-02-22T08:10:28.361Z,99335.16
2023-02-22T08:12:56.046Z,99336.63
2023-02-22T08:15:30.049Z,99335.91
2023-02-22T08:17:58.068Z,99334.66
2023-02-22T08:20:26.214Z,99336.25
2023-02-22T08:22:54.456Z,99337.44
2023-02-22T08:25:25.353Z,99337.19
2023-02-22T08:27:52.712Z,99336.66
2023-02-22T08:30:22.408Z,99336.69
2023-02-22T08:32:50.651Z,99338.22
2023-02-22T08:35:22.072Z,99339.69
2023-02-22T08:37:52.343Z,99335.25
2023-02-22T08:40:23.541Z,99344.75
2023-02-22T08:42:50.940Z,99339.50
2023-02-22T08:45:18.108Z,99336.47
2023-02-22T08:47:45.121Z,99344.81
2023-02-22T08:50:20.365Z,99339.41
2023-02-22T08:52:47.565Z,99340.53
2023-02-22T08:55:15.078Z,99338.94
2023-02-22T08:57:42.110Z,99346.94
2023-02-22T09:00:09.810Z,99336.34
2023-02-22T09:02:37.105Z,99337.69
2023-02-22T09:05:05.813Z,99333.31
2023-02-22T09:07:32.968Z,99345.03
2023-02-22T09:10:00.358Z,99335.50
2023-02-22T09:12:27.374Z,99333.78
2023-02-22T09:14:54.441Z,99339.78
2023-02-22T09:17:21.785Z,99338.41
2023-02-22T09:19:48.792Z,99339.00
2023-02-22T09:22:15.860Z,99334.78
2023-02-22T09:24:43.427Z,99332.44
2023-02-22T09:27:12.189Z,99335.81
2023-02-22T09:29:39.579Z,99324.84
2023-02-22T09:32:07.219Z,99327.31
2023-02-22T09:34:35.359Z,99326.34
2023-02-22T09:37:02.529Z,99325.91
2023-02-22T09:39:29.975Z,99325.56
2023-02-22T09:42:15.945Z,99323.28
2023-02-22T09:44:55.065Z,99326.06
2023-02-22T09:47:32.513Z,99320.38
2023-02-22T09:50:15.610Z,99315.53
2023-02-22T09:52:55.559Z,99319.00
2023-02-22T09:55:47.937Z,99319.06
2023-02-22T09:58:33.435Z,99319.56
2023-02-22T10:01:33.197Z,99311.78
2023-02-22T10:04:20.048Z,99318.22
2023-02-22T10:07:06.189Z,99313.13
2023-02-22T10:09:38.359Z,99321.72
2023-02-22T10:12:12.741Z,99317.25
2023-02-22T10:15:05.334Z,99316.41
2023-02-22T10:18:10.691Z,99309.94
2023-02-22T10:20:42.570Z,99311.28
2023-02-22T10:23:19.173Z,99311.16
2023-02-22T10:25:52.554Z,99308.41
2023-02-22T10:28:24.788Z,99306.94
2023-02-22T10:30:59.073Z,99308.84
2023-02-22T10:33:35.220Z,99303.38
2023-02-22T10:36:03.256Z,99302.63
2023-02-22T10:38:33.725Z,99300.84
2023-02-22T10:41:09.971Z,99300.50
2023-02-22T10:43:38.648Z,99297.97
2023-02-22T10:46:08.193Z,99301.34
2023-02-22T10:48:38.577Z,99297.47
2023-02-22T10:51:08.673Z,99301.38
2023-02-22T10:53:38.482Z,99302.00
2023-02-22T10:56:21.569Z,99290.97
2023-02-22T10:58:48.639Z,99301.81
2023-02-22T11:01:22.167Z,99297.66
2023-02-22T11:04:07.576Z,99296.84
2023-02-22T11:06:35.572Z,99293.00
2023-02-22T11:09:10.712Z,99298.00
2023-02-22T11:11:41.212Z,99285.44
2023-02-22T11:14:10.873Z,99286.19
2023-02-22T11:16:52.482Z,99289.69
2023-02-22T11:19:28.953Z,99283.00
2023-02-22T11:22:10.503Z,99278.75
2023-02-22T11:27:43.768Z,99270.13
2023-02-22T11:30:35.471Z,99271.28
2023-02-22T11:33:23.572Z,99265.41
2023-02-22T11:35:54.294Z,99264.66
2023-02-22T11:38:30.736Z,99269.19
2023-02-22T11:41:29.355Z,99269.09
2023-02-22T11:44:21.349Z,99258.25
2023-02-22T11:46:49.032Z,99262.84
2023-02-22T11:49:17.653Z,99259.25
2023-02-22T11:51:56.994Z,99259.25
2023-02-22T11:54:29.393Z,99265.84
2023-02-22T11:57:16.432Z,99260.94
2023-02-22T11:59:46.908Z,99261.19
2023-02-22T12:02:18.482Z,99258.88
2023-02-22T12:04:55.039Z,99256.94
2023-02-22T12:07:34.831Z,99257.16
2023-02-22T12:10:19.435Z,99248.53
2023-02-22T12:12:55.573Z,99245.97
2023-02-22T12:15:31.479Z,99246.19
2023-02-22T12:18:15.567Z,99249.91
2023-02-22T12:20:51.068Z,99243.53
2023-02-22T12:23:30.064Z,99242.06
2023-02-22T12:26:05.656Z,99246.06
2023-02-22T12:28:39.148Z,99243.34
2023-02-22T12:31:25.296Z,99238.25
2023-02-22T12:34:04.903Z,99238.25
2023-02-22T12:36:44.180Z,99235.59
2023-02-22T12:39:50.744Z,99231.91
2023-02-22T12:42:47.602Z,99232.78
2023-02-22T12:45:41.465Z,99231.72
2023-02-22T12:48:33.306Z,99228.84
2023-02-22T12:51:16.104Z,99229.81
2023-02-22T12:53:55.693Z,99224.50
2023-02-22T12:56:36.411Z,99221.28
2023-02-22T12:59:17.425Z,99222.66
2023-02-22T13:01:50.532Z,99215.34
2023-02-22T13:04:21.205Z,99218.31
2023-02-22T13:07:19.233Z,99213.84
2023-02-22T13:10:03.145Z,99209.81
2023-02-22T13:12:55.373Z,99219.78
2023-02-22T13:15:47.861Z,99213.12
2023-02-22T13:18:29.590Z,99211.09
2023-02-22T13:21:09.165Z,99213.84
2023-02-22T13:24:12.505Z,99219.69
2023-02-22T13:26:53.736Z,99216.41
2023-02-22T13:29:30.104Z,99213.53
2023-02-22T13:32:15.867Z,99220.62
2023-02-22T13:35:02.508Z,99222.53
2023-02-22T13:38:04.023Z,99214.19
2023-02-22T13:40:52.864Z,99215.63
2023-02-22T13:43:35.234Z,99224.22
2023-02-22T13:46:33.753Z,99225.94
2023-02-22T13:49:17.039Z,99224.31
2023-02-22T13:51:58.982Z,99230.34
2023-02-22T13:54:37.640Z,99230.34
2023-02-22T13:57:19.082Z,99226.56
2023-02-22T13:59:47.402Z,99223.53
2023-02-22T14:02:55.822Z,99225.66
2023-02-22T14:05:42.293Z,99223.94
2023-02-22T14:08:31.622Z,99222.25
2023-02-22T14:11:02.357Z,99224.28
2023-02-22T14:13:33.253Z,99217.00
2023-02-22T14:16:00.755Z,99209.37
2023-02-22T14:18:38.026Z,99214.47
2023-02-22T14:21:14.377Z,99214.91
2023-02-22T14:23:44.948Z,99220.19
2023-02-22T14:26:30.894Z,99216.44
2023-02-22T14:28:59.513Z,99225.28
2023-02-22T14:31:36.962Z,99217.09
2023-02-22T14:34:04.710Z,99219.12
2023-02-22T14:36:53.356Z,99219.22
2023-02-22T14:39:43.887Z,99209.78
2023-02-22T14:42:14.583Z,99211.91
2023-02-22T14:45:03.019Z,99211.34
2023-02-22T14:47:39.949Z,99209.13
2023-02-22T14:50:17.878Z,99204.78
2023-02-22T14:52:48.704Z,99198.53
2023-02-22T14:55:22.068Z,99206.69
2023-02-22T14:58:46.069Z,99206.53
2023-02-22T15:01:49.125Z,99198.38
2023-02-22T15:04:31.231Z,99203.38
2023-02-22T15:07:01.113Z,99208.03
2023-02-22T15:09:34.864Z,99203.44
2023-02-22T15:12:05.260Z,99199.47
2023-02-22T15:14:38.997Z,99199.25
2023-02-22T15:17:22.505Z,99197.41
2023-02-22T15:19:50.172Z,99201.84
2023-02-22T15:22:27.116Z,99196.94
2023-02-22T15:25:03.538Z,99197.59
2023-02-22T15:27:34.574Z,99190.81
2023-02-22T15:30:06.238Z,99191.31
2023-02-22T15:32:36.248Z,99189.91
2023-02-22T15:35:23.403Z,99200.00
2023-02-22T15:38:01.123Z,99194.59
2023-02-22T15:40:33.357Z,99187.50
2023-02-22T15:43:08.941Z,99198.88
2023-02-22T15:45:42.949Z,99195.59
2023-02-22T15:48:11.712Z,99189.66
2023-02-22T15:50:39.295Z,99185.09
2023-02-22T15:53:23.835Z,99189.44
2023-02-22T15:56:00.060Z,99191.91
2023-02-22T15:58:30.058Z,99196.53
2023-02-22T16:01:07.189Z,99191.63
2023-02-22T16:03:51.482Z,99193.06
2023-02-22T16:06:30.508Z,99194.97
2023-02-22T16:09:01.087Z,99190.88
2023-02-22T16:11:34.333Z,99191.09
2023-02-22T16:14:05.172Z,99193.94
2023-02-22T16:16:35.984Z,99190.03
2023-02-22T16:19:28.066Z,99188.53
2023-02-22T16:22:02.959Z,99188.72
2023-02-22T16:24:33.405Z,99192.41
2023-02-22T16:27:17.771Z,99194.75
2023-02-22T16:30:02.402Z,99197.88
2023-02-22T16:32:30.444Z,99206.00
2023-02-22T16:34:57.940Z,99204.38
2023-02-22T16:37:25.166Z,99200.22
2023-02-22T16:39:52.364Z,99200.59
2023-02-22T16:42:24.148Z,99202.66
2023-02-22T16:44:52.386Z,99203.88
2023-02-22T16:47:20.455Z,99206.81
2023-02-22T16:49:52.870Z,99205.38
2023-02-22T16:52:20.672Z,99205.63
2023-02-22T16:54:48.495Z,99210.06
2023-02-22T16:57:21.922Z,99207.59
2023-02-22T16:59:52.212Z,99207.59
2023-02-22T17:02:20.465Z,99207.78
2023-02-22T17:04:49.524Z,99212.31
2023-02-22T17:07:29.881Z,99215.22
2023-02-22T17:10:00.761Z,99219.75
2023-02-22T17:12:30.124Z,99215.50
2023-02-22T17:14:57.711Z,99214.91
2023-02-22T17:17:26.463Z,99216.84
2023-02-22T17:19:54.986Z,99210.91
2023-02-22T17:22:22.762Z,99214.84
2023-02-22T17:24:49.889Z,99214.16
2023-02-22T17:27:17.336Z,99217.06
2023-02-22T17:29:45.206Z,99219.75
2023-02-22T17:32:13.048Z,99219.09
2023-02-22T17:34:40.762Z,99219.34
2023-02-22T17:37:08.113Z,99213.41
2023-02-22T17:39:35.428Z,99217.91
2023-02-22T17:42:03.035Z,99213.56
2023-02-22T17:44:30.233Z,99212.97
2023-02-22T17:46:57.356Z,99214.06
2023-02-22T17:49:24.807Z,99212.44
2023-02-22T17:51:53.210Z,99211.59
2023-02-22T17:54:20.649Z,99215.19
2023-02-22T17:56:48.098Z,99212.78
2023-02-22T17:59:15.306Z,99212.88
2023-02-22T18:01:44.031Z,99215.69
2023-02-22T18:04:11.796Z,99205.12
2023-02-22T18:06:40.060Z,99203.94
2023-02-22T18:09:10.396Z,99204.97
2023-02-22T18:11:39.533Z,99209.63
2023-02-22T18:14:10.119Z,99207.16
2023-02-22T18:16:39.360Z,99205.56
2023-02-22T18:19:06.877Z,99207.59
2023-02-22T18:21:34.077Z,99199.06
2023-02-22T18:24:02.057Z,99195.84
2023-02-22T18:26:29.690Z,99203.06
2023-02-22T18:28:56.973Z,99197.97
2023-02-22T18:31:24.435Z,99198.19
2023-02-22T18:33:52.721Z,99201.09
2023-02-22T18:36:23.587Z,99196.66
2023-02-22T18:38:53.422Z,99202.88
2023-02-22T18:41:25.284Z,99198.63
2023-02-22T18:43:55.402Z,99199.72
2023-02-22T18:46:24.408Z,99202.44
2023-02-22T18:48:54.532Z,99201.59
2023-02-22T18:51:22.308Z,99201.50
2023-02-22T18:53:57.060Z,99201.19
2023-02-22T18:56:29.606Z,99197.44
2023-02-22T18:58:59.208Z,99193.66
2023-02-22T19:01:27.289Z,99210.34
2023-02-22T19:03:55.528Z,99202.56
2023-02-22T19:06:23.058Z,99200.84
2023-02-22T19:08:50.955Z,99201.72
2023-02-22T19:11:21.902Z,99201.72
2023-02-22T19:13:54.399Z,99199.94
2023-02-22T19:16:24.469Z,99205.22
2023-02-22T19:18:57.096Z,99205.28
2023-02-22T19:21:26.958Z,99202.22
2023-02-22T19:24:00.961Z,99196.53
2023-02-22T19:26:29.425Z,99199.75
2023-02-22T19:28:58.696Z,99196.44
2023-02-22T19:31:33.510Z,99210.53
2023-02-22T19:34:04.705Z,99210.34
2023-02-22T19:36:32.426Z,99214.09
2023-02-22T19:39:02.621Z,99214.25
2023-02-22T19:41:31.208Z,99213.91
2023-02-22T19:43:59.003Z,99226.25
2023-02-22T19:46:26.101Z,99221.41
2023-02-22T19:48:55.300Z,99225.63
2023-02-22T19:51:27.808Z,99221.78
2023-02-22T19:54:00.448Z,99226.50
2023-02-22T19:56:28.227Z,99220.38
2023-02-22T19:58:57.500Z,99228.09
2023-02-22T20:01:30.404Z,99236.38
2023-02-22T20:04:00.639Z,99231.81
2023-02-22T20:06:31.320Z,99231.28
2023-02-22T20:08:58.694Z,99230.44
2023-02-22T20:11:26.662Z,99230.75
2023-02-22T20:13:57.249Z,99235.16
2023-02-22T20:16:24.688Z,99232.22
2023-02-22T20:18:52.174Z,99236.81
2023-02-22T20:21:23.869Z,99224.37
2023-02-22T20:23:51.597Z,99232.75
2023-02-22T20:26:24.954Z,99237.31
2023-02-22T20:28:53.343Z,99230.38
2023-02-22T20:31:21.369Z,99226.41
2023-02-22T20:33:53.156Z,99226.78
2023-02-22T20:36:23.364Z,99231.50
2023-02-22T20:38:58.750Z,99225.78
2023-02-22T20:41:32.358Z,99230.44
2023-02-22T20:44:01.454Z,99223.69
2023-02-22T20:46:31.680Z,99223.37
2023-02-22T20:49:01.100Z,99232.59
2023-02-22T20:51:29.568Z,99232.44
2023-02-22T20:54:01.073Z,99229.19
2023-02-22T20:56:30.853Z,99232.06
2023-02-22T20:59:02.906Z,99229.28
2023-02-22T21:01:31.080Z,99231.91
2023-02-22T21:04:02.836Z,99231.66
2023-02-22T21:06:30.993Z,99232.53
2023-02-22T21:09:00.246Z,99238.72
2023-02-22T21:11:30.404Z,99241.66
2023-02-22T21:13:58.145Z,99242.69
2023-02-22T21:16:35.532Z,99239.97
2023-02-22T21:19:07.019Z,99243.59
2023-02-22T21:21:35.408Z,99240.19
2023-02-22T21:24:02.532Z,99248.94
2023-02-22T21:26:34.004Z,99251.88
2023-02-22T21:29:04.941Z,99250.09
2023-02-22T21:31:34.026Z,99246.66
2023-02-22T21:34:01.997Z,99250.88
2023-02-22T21:36:29.541Z,99249.47
2023-02-22T21:39:01.622Z,99251.78
2023-02-22T21:41:31.133Z,99248.72
2023-02-22T21:43:59.590Z,99242.19
2023-02-22T21:46:31.437Z,99240.81
2023-02-22T21:48:59.143Z,99245.53
2023-02-22T21:51:31.795Z,99252.13
2023-02-22T21:54:02.047Z,99258.62
2023-02-22T21:56:32.365Z,99258.09
2023-02-22T21:59:06.176Z,99242.03
2023-02-22T22:01:36.774Z,99242.28
2023-02-22T22:04:05.057Z,99248.91
2023-02-22T22:06:34.615Z,99252.13
2023-02-22T22:09:04.949Z,99243.12
2023-02-22T22:11:32.515Z,99242.44
2023-02-22T22:14:00.458Z,99241.91
2023-02-22T22:16:29.816Z,99243.50
2023-02-22T22:18:57.749Z,99242.34
2023-02-22T22:21:25.049Z,99231.19
2023-02-22T22:23:56.689Z,99239.53
2023-02-22T22:26:25.387Z,99233.66
2023-02-22T22:28:55.844Z,99241.22
2023-02-22T22:31:26.010Z,99234.81
2023-02-22T22:33:54.831Z,99241.47
2023-02-22T22:36:23.279Z,99241.59
2023-02-22T22:38:52.680Z,99232.59
2023-02-22T22:41:21.850Z,99233.03
2023-02-22T22:43:48.962Z,99244.00
2023-02-22T22:46:17.927Z,99234.13
2023-02-22T22:48:47.007Z,99239.63
2023-02-22T22:51:18.568Z,99241.06
2023-02-22T22:53:48.059Z,99242.53
2023-02-22T22:56:21.716Z,99247.16
2023-02-22T22:58:56.917Z,99238.53
2023-02-22T23:01:33.051Z,99249.06
2023-02-22T23:04:03.373Z,99243.34
2023-02-22T23:06:33.389Z,99250.84
2023-02-22T23:09:11.396Z,99249.72
2023-02-22T23:11:45.082Z,99248.94
2023-02-22T23:14:19.533Z,99251.41
2023-02-22T23:16:51.368Z,99251.50
2023-02-22T23:19:19.666Z,99255.28
2023-02-22T23:21:48.929Z,99250.78
2023-02-22T23:24:19.396Z,99250.16
2023-02-22T23:26:50.676Z,99253.41
2023-02-22T23:29:20.561Z,99263.94
2023-02-22T23:31:49.557Z,99253.25
2023-02-22T23:34:18.816Z,99258.81
2023-02-22T23:36:46.756Z,99254.47
2023-02-22T23:39:16.021Z,99262.50
2023-02-22T23:41:43.236Z,99259.59
2023-02-22T23:44:13.591Z,99253.13
2023-02-22T23:46:41.214Z,99249.72
2023-02-22T23:49:09.935Z,99258.53
2023-02-22T23:51:44.494Z,99259.97
2023-02-22T23:54:14.891Z,99251.12
2023-02-22T23:56:56.752Z,99251.12
2023-02-22T23:59:26.276Z,99252.41
